Nichols, Minnesota
Current Conditions -  °F | °C
As of 8:11 PM on Saturday 22 Nov 2014 (Local Time) from KEVM Reporting Station
Haze Haze  
Wind Chill: 25°   Ceiling: 700
Heat Index: 32°   Visibility: 5mi
Dew Point: 30°   Wind: 8mph
Humidity: 93%   Direction: 150°SSE
Pressure: 29.58"   Gusts: NA
Location:  47.4996°N, 92.6723°W
Report Text: KEVM 230211Z AUTO 15007KT 5SM BR OVC007 00/M01 A2958 RMK AO2
Loading
Personal Weather Stations






























Interactive Weather Map New forecast layout! Learn more

10-Day Weather Forecast

Advertisements
Track Severe Weather on mobile